createdAt,value
2019-06-10T00:01:26.759Z,2.10
2019-06-10T00:03:32.033Z,1.60
2019-06-10T00:05:37.226Z,1.80
2019-06-10T00:07:42.816Z,1.60
2019-06-10T00:09:47.868Z,1.93
2019-06-10T00:11:53.146Z,1.67
2019-06-10T00:13:58.590Z,1.90
2019-06-10T00:16:05.099Z,1.83
2019-06-10T00:18:33.449Z,1.90
2019-06-10T00:20:17.104Z,1.80
2019-06-10T00:22:22.240Z,2.00
2019-06-10T00:24:27.375Z,1.80
2019-06-10T00:26:32.608Z,1.80
2019-06-10T00:28:37.761Z,1.97
2019-06-10T00:30:43.113Z,1.60
2019-06-10T00:32:48.273Z,1.90
2019-06-10T00:34:53.962Z,1.40
2019-06-10T00:37:01.532Z,2.03
2019-06-10T00:39:08.845Z,2.40
2019-06-10T00:41:14.310Z,1.90
2019-06-10T00:43:21.190Z,1.70
2019-06-10T00:45:25.602Z,1.87
2019-06-10T00:47:30.755Z,2.10
2019-06-10T00:49:36.179Z,2.50
2019-06-10T00:51:41.527Z,1.93
2019-06-10T00:53:46.974Z,2.10
2019-06-10T00:55:51.807Z,1.80
2019-06-10T00:57:56.578Z,2.43
2019-06-10T01:00:12.071Z,2.10
2019-06-10T01:02:10.832Z,1.90
2019-06-10T01:04:16.413Z,2.30
2019-06-10T01:06:21.495Z,2.23
2019-06-10T01:08:26.396Z,2.20
2019-06-10T01:10:31.615Z,2.20
2019-06-10T01:12:36.514Z,2.45
2019-06-10T01:14:41.330Z,2.30
2019-06-10T01:16:46.116Z,2.13
2019-06-10T01:18:53.468Z,2.60
2019-06-10T01:20:57.285Z,1.70
2019-06-10T01:23:02.292Z,2.27
2019-06-10T01:25:07.648Z,2.87
2019-06-10T01:27:14.975Z,2.20
2019-06-10T01:29:20.986Z,2.27
2019-06-10T01:31:25.880Z,2.40
2019-06-10T01:33:31.903Z,2.20
2019-06-10T01:35:36.830Z,2.03
2019-06-10T01:37:42.014Z,2.50
2019-06-10T01:39:47.583Z,2.17
2019-06-10T01:41:52.506Z,2.23
2019-06-10T01:43:57.291Z,2.10
2019-06-10T01:46:02.430Z,2.70
2019-06-10T01:48:07.176Z,2.17
2019-06-10T01:50:14.305Z,2.50
2019-06-10T01:52:21.052Z,2.03
2019-06-10T01:54:25.092Z,2.20
2019-06-10T01:56:31.498Z,2.20
2019-06-10T01:58:36.368Z,2.07
2019-06-10T02:00:54.659Z,1.90
2019-06-10T02:03:03.587Z,2.33
2019-06-10T02:05:08.401Z,2.40
2019-06-10T02:07:15.536Z,2.07
2019-06-10T02:09:22.884Z,2.40
2019-06-10T02:11:26.443Z,2.10
2019-06-10T02:13:33.053Z,2.50
2019-06-10T02:15:40.940Z,1.97
2019-06-10T02:17:45.390Z,3.27
2019-06-10T02:19:50.900Z,2.13
2019-06-10T02:21:55.880Z,2.40
2019-06-10T02:24:01.020Z,2.30
2019-06-10T02:26:06.007Z,1.80
2019-06-10T02:28:13.049Z,2.33
2019-06-10T02:30:28.521Z,2.10
2019-06-10T02:32:31.769Z,2.20
2019-06-10T02:34:34.150Z,1.80
2019-06-10T02:36:37.222Z,2.00
2019-06-10T02:38:44.384Z,2.37
2019-06-10T02:40:48.494Z,2.00
2019-06-10T02:42:55.204Z,2.27
2019-06-10T02:45:03.258Z,2.00
2019-06-10T02:47:06.401Z,2.10
2019-06-10T02:49:26.600Z,2.00
2019-06-10T02:51:20.067Z,2.60
2019-06-10T02:53:30.671Z,2.27
2019-06-10T02:55:35.030Z,2.20
2019-06-10T02:57:40.269Z,2.67
2019-06-10T02:59:44.970Z,2.47
2019-06-10T03:01:53.430Z,2.60
2019-06-10T03:03:57.084Z,2.63
2019-06-10T03:06:06.553Z,3.10
2019-06-10T03:08:09.021Z,2.90
2019-06-10T03:10:16.064Z,2.67
2019-06-10T03:12:23.954Z,2.83
2019-06-10T03:14:28.237Z,2.33
2019-06-10T03:16:47.410Z,2.67
2019-06-10T03:18:52.628Z,2.80
2019-06-10T03:20:57.838Z,3.00
2019-06-10T03:23:03.180Z,3.27
2019-06-10T03:25:08.190Z,2.67
2019-06-10T03:27:13.692Z,2.63
2019-06-10T03:29:18.618Z,3.13
2019-06-10T03:31:32.785Z,2.87
2019-06-10T03:33:40.376Z,2.80
2019-06-10T03:35:37.427Z,3.10
2019-06-10T03:37:42.457Z,3.10
2019-06-10T03:39:48.208Z,3.07
2019-06-10T03:41:53.001Z,2.87
2019-06-10T03:43:58.159Z,2.30
2019-06-10T03:46:03.483Z,2.40
2019-06-10T03:48:09.099Z,2.70
2019-06-10T03:50:14.136Z,2.53
2019-06-10T03:52:19.547Z,2.70
2019-06-10T03:54:27.699Z,2.60
2019-06-10T03:56:32.230Z,2.97
2019-06-10T03:58:37.278Z,2.70
2019-06-10T04:00:43.050Z,2.70
2019-06-10T04:02:48.349Z,2.40
2019-06-10T04:04:53.364Z,2.90
2019-06-10T04:06:58.231Z,2.97
2019-06-10T04:09:03.025Z,2.87
2019-06-10T04:11:07.904Z,2.80
2019-06-10T04:13:13.211Z,3.13
2019-06-10T04:15:19.718Z,3.00
2019-06-10T04:17:25.714Z,2.97
2019-06-10T04:19:32.737Z,2.83
2019-06-10T04:21:37.609Z,2.70
2019-06-10T04:23:42.658Z,3.17
2019-06-10T04:25:47.537Z,3.33
2019-06-10T04:27:52.545Z,2.57
2019-06-10T04:29:57.386Z,3.30
2019-06-10T04:32:03.059Z,3.33
2019-06-10T04:34:08.462Z,3.30
2019-06-10T04:36:13.687Z,3.10
2019-06-10T04:38:18.551Z,3.60
2019-06-10T04:40:25.081Z,2.60
2019-06-10T04:42:29.945Z,3.50
2019-06-10T04:44:34.863Z,3.83
2019-06-10T04:46:39.775Z,3.47
2019-06-10T04:48:44.592Z,3.60
2019-06-10T04:50:49.535Z,3.47
2019-06-10T04:52:54.430Z,3.50
2019-06-10T04:54:59.274Z,3.60
2019-06-10T04:57:04.081Z,3.70
2019-06-10T04:59:09.233Z,3.40
2019-06-10T05:01:14.408Z,3.60
2019-06-10T05:03:19.200Z,3.90
2019-06-10T05:05:25.638Z,4.10
2019-06-10T05:07:34.215Z,3.60
2019-06-10T05:09:37.328Z,4.15
2019-06-10T05:11:43.458Z,4.47
2019-06-10T05:13:48.269Z,3.90
2019-06-10T05:15:53.082Z,4.07
2019-06-10T05:17:57.904Z,3.87
2019-06-10T05:20:02.833Z,3.90
2019-06-10T05:22:07.674Z,4.27
2019-06-10T05:24:12.675Z,4.10
2019-06-10T05:26:17.571Z,3.90
2019-06-10T05:28:24.457Z,4.30
2019-06-10T05:30:30.763Z,3.70
2019-06-10T05:32:36.160Z,4.17
2019-06-10T05:34:43.747Z,4.20
2019-06-10T05:36:48.029Z,4.45
2019-06-10T05:38:53.076Z,4.13
2019-06-10T05:40:57.994Z,4.50
2019-06-10T05:43:02.883Z,4.10
2019-06-10T05:45:09.027Z,4.07
2019-06-10T05:47:14.118Z,4.70
2019-06-10T05:49:19.529Z,3.77
2019-06-10T05:51:26.135Z,4.23
2019-06-10T05:53:34.937Z,4.10
2019-06-10T05:55:38.458Z,4.67
2019-06-10T05:57:43.819Z,4.27
2019-06-10T05:59:49.033Z,4.50
2019-06-10T06:01:54.214Z,4.67
2019-06-10T06:03:59.565Z,4.50
2019-06-10T06:06:04.958Z,4.50
2019-06-10T06:08:12.385Z,4.20
2019-06-10T06:10:17.259Z,4.50
2019-06-10T06:12:22.719Z,4.50
2019-06-10T06:14:29.677Z,4.20
2019-06-10T06:16:36.244Z,4.30
2019-06-10T06:18:42.445Z,4.20
2019-06-10T06:20:48.879Z,5.40
2019-06-10T06:22:56.794Z,5.00
2019-06-10T06:25:03.973Z,4.40
2019-06-10T06:27:09.239Z,4.40
2019-06-10T06:29:14.605Z,4.30
2019-06-10T06:31:19.457Z,4.20
2019-06-10T06:33:24.848Z,4.80
2019-06-10T06:35:33.012Z,4.57
2019-06-10T06:37:39.442Z,4.67
2019-06-10T06:39:45.445Z,4.70
2019-06-10T06:41:52.726Z,4.60
2019-06-10T06:43:58.228Z,4.70
2019-06-10T06:46:03.544Z,4.57
2019-06-10T06:48:09.183Z,5.22
2019-06-10T06:50:15.065Z,4.83
2019-06-10T06:52:38.893Z,5.00
2019-06-10T06:54:28.465Z,4.33
2019-06-10T06:56:36.169Z,4.60
2019-06-10T06:58:40.217Z,4.30
2019-06-10T07:01:00.686Z,5.03
2019-06-10T07:02:52.978Z,4.50
2019-06-10T07:04:58.309Z,4.87
2019-06-10T07:07:03.992Z,5.30
2019-06-10T07:09:09.696Z,5.87
2019-06-10T07:11:17.466Z,4.90
2019-06-10T07:13:23.240Z,4.85
2019-06-10T07:15:46.360Z,4.90
2019-06-10T07:17:47.450Z,4.83
2019-06-10T07:19:53.214Z,5.40
2019-06-10T07:22:11.434Z,5.15
2019-06-10T07:24:05.677Z,4.93
2019-06-10T07:26:12.737Z,4.53
2019-06-10T07:28:18.072Z,5.40
2019-06-10T07:30:23.645Z,4.63
2019-06-10T07:32:28.495Z,5.23
2019-06-10T07:34:36.349Z,4.40
2019-06-10T07:36:41.563Z,5.07
2019-06-10T07:38:48.991Z,4.85
2019-06-10T07:40:53.715Z,5.03
2019-06-10T07:42:58.573Z,5.23
2019-06-10T07:45:03.571Z,4.67
2019-06-10T07:47:08.396Z,4.87
2019-06-10T07:49:13.634Z,5.20
2019-06-10T07:51:18.852Z,5.10
2019-06-10T07:53:24.011Z,4.60
2019-06-10T07:55:29.375Z,5.20
2019-06-10T07:57:34.735Z,5.23
2019-06-10T07:59:44.529Z,4.90
2019-06-10T08:01:51.758Z,5.13
2019-06-10T08:03:55.594Z,5.12
2019-06-10T08:06:03.047Z,4.90
2019-06-10T08:08:07.736Z,5.20
2019-06-10T08:10:17.491Z,4.43
2019-06-10T08:12:23.249Z,5.00
2019-06-10T08:14:28.371Z,4.73
2019-06-10T08:16:35.681Z,5.70
2019-06-10T08:19:07.074Z,5.30
2019-06-10T08:20:47.913Z,5.90
2019-06-10T08:22:57.607Z,5.60
2019-06-10T08:25:04.612Z,5.47
2019-06-10T08:27:06.979Z,5.13
2019-06-10T08:29:12.779Z,5.60
2019-06-10T08:31:22.636Z,5.60
2019-06-10T08:33:28.164Z,4.80
2019-06-10T08:35:43.648Z,5.27
2019-06-10T08:37:43.251Z,5.40
2019-06-10T08:39:49.349Z,5.80
2019-06-10T08:41:54.797Z,5.53
2019-06-10T08:44:02.346Z,5.40
2019-06-10T08:46:07.134Z,5.20
2019-06-10T08:48:13.339Z,6.17
2019-06-10T08:50:21.176Z,5.27
2019-06-10T08:52:25.680Z,5.90
2019-06-10T08:54:32.414Z,5.60
2019-06-10T08:56:40.062Z,5.53
2019-06-10T08:58:48.925Z,6.00
2019-06-10T09:00:53.447Z,5.87
2019-06-10T09:03:00.437Z,6.03
2019-06-10T09:05:06.110Z,5.53
2019-06-10T09:07:12.619Z,5.57
2019-06-10T09:09:17.571Z,6.20
2019-06-10T09:11:23.645Z,5.73
2019-06-10T09:13:29.157Z,5.60
2019-06-10T09:15:34.828Z,6.03
2019-06-10T09:17:40.327Z,6.50
2019-06-10T09:19:49.792Z,6.00
2019-06-10T09:21:56.276Z,6.00
2019-06-10T09:24:03.495Z,5.80
2019-06-10T09:26:06.690Z,6.13
2019-06-10T09:28:12.823Z,6.10
2019-06-10T09:30:18.388Z,6.70
2019-06-10T09:32:23.749Z,6.40
2019-06-10T09:34:33.062Z,5.77
2019-06-10T09:36:37.774Z,6.30
2019-06-10T09:38:47.301Z,6.20
2019-06-10T09:41:00.861Z,6.27
2019-06-10T09:43:02.451Z,6.20
2019-06-10T09:45:09.757Z,6.37
2019-06-10T09:47:15.427Z,6.17
2019-06-10T09:49:22.289Z,6.10
2019-06-10T09:51:27.973Z,6.30
2019-06-10T09:53:39.280Z,6.40
2019-06-10T09:55:42.021Z,6.60
2019-06-10T09:57:48.918Z,6.70
2019-06-10T09:59:56.323Z,6.73
2019-06-10T10:02:03.687Z,6.20
2019-06-10T10:04:12.252Z,7.03
2019-06-10T10:06:16.498Z,7.07
2019-06-10T10:08:23.837Z,6.85
2019-06-10T10:10:36.548Z,6.27
2019-06-10T10:12:44.483Z,7.43
2019-06-10T10:14:51.385Z,6.83
2019-06-10T10:17:00.110Z,6.80
2019-06-10T10:19:05.193Z,7.27
2019-06-10T10:21:13.085Z,6.90
2019-06-10T10:23:17.998Z,7.07
2019-06-10T10:25:23.645Z,6.03
2019-06-10T10:27:28.908Z,5.70
2019-06-10T10:29:33.982Z,6.43
2019-06-10T10:31:39.083Z,6.47
2019-06-10T10:33:44.384Z,7.42
2019-06-10T10:35:50.679Z,6.50
2019-06-10T10:37:56.596Z,7.07
2019-06-10T10:40:03.741Z,7.60
2019-06-10T10:42:08.720Z,7.50
2019-06-10T10:44:14.805Z,7.37
2019-06-10T10:46:22.950Z,8.23
2019-06-10T10:48:26.850Z,6.60
2019-06-10T10:50:34.147Z,6.70
2019-06-10T10:52:39.347Z,6.70
2019-06-10T10:54:46.186Z,7.50
2019-06-10T10:56:55.254Z,8.30
2019-06-10T10:58:58.756Z,6.92
2019-06-10T11:01:04.903Z,6.60
2019-06-10T11:03:13.249Z,7.90
2019-06-10T11:05:34.590Z,7.30
2019-06-10T11:07:42.140Z,7.20
2019-06-10T11:09:48.449Z,7.27
2019-06-10T11:11:57.466Z,7.03
2019-06-10T11:14:03.736Z,7.20
2019-06-10T11:16:08.841Z,6.60
2019-06-10T11:18:14.073Z,6.67
2019-06-10T11:20:19.263Z,6.80
2019-06-10T11:22:24.901Z,6.60
2019-06-10T11:24:37.575Z,5.17
2019-06-10T11:26:38.405Z,6.40
2019-06-10T11:28:43.557Z,6.00
2019-06-10T11:30:49.449Z,5.57
2019-06-10T11:32:58.328Z,6.87
2019-06-10T11:35:04.222Z,6.50
2019-06-10T11:37:09.357Z,6.37
2019-06-10T11:39:14.740Z,7.00
2019-06-10T11:41:20.379Z,7.07
2019-06-10T11:43:25.473Z,6.57
2019-06-10T11:45:32.821Z,7.00
2019-06-10T11:47:38.673Z,7.67
2019-06-10T11:49:43.858Z,6.90
2019-06-10T11:51:49.311Z,6.33
2019-06-10T11:53:55.975Z,6.70
2019-06-10T11:56:02.594Z,6.80
2019-06-10T11:58:08.122Z,6.43
2019-06-10T12:00:17.146Z,6.77
2019-06-10T12:02:22.446Z,7.10
2019-06-10T12:04:27.968Z,6.80
2019-06-10T12:06:34.787Z,6.80
2019-06-10T12:08:43.438Z,8.17
2019-06-10T12:10:49.000Z,6.83
2019-06-10T12:12:58.940Z,6.57
2019-06-10T12:15:03.063Z,6.97
2019-06-10T12:17:32.768Z,7.30
2019-06-10T12:19:15.396Z,6.87
2019-06-10T12:21:22.979Z,6.90
2019-06-10T12:23:27.657Z,6.30
2019-06-10T12:25:39.244Z,7.58
2019-06-10T12:27:40.458Z,6.90
2019-06-10T12:29:45.669Z,6.73
2019-06-10T12:31:54.091Z,6.93
2019-06-10T12:34:00.392Z,6.70
2019-06-10T12:36:07.103Z,7.90
2019-06-10T12:38:13.842Z,7.30
2019-06-10T12:40:19.725Z,6.90
2019-06-10T12:42:25.628Z,7.30
2019-06-10T12:44:31.297Z,6.93
2019-06-10T12:46:37.479Z,7.47
2019-06-10T12:48:42.939Z,6.67
2019-06-10T12:50:48.004Z,7.40
2019-06-10T12:52:54.619Z,6.50
2019-06-10T12:54:59.575Z,7.13
2019-06-10T12:57:06.686Z,6.23
2019-06-10T12:59:13.642Z,5.90
2019-06-10T13:01:19.089Z,6.60
2019-06-10T13:03:24.224Z,7.33
2019-06-10T13:05:29.383Z,6.75
2019-06-10T13:07:36.132Z,6.10
2019-06-10T13:09:43.886Z,7.00
2019-06-10T13:11:48.731Z,6.43
2019-06-10T13:13:53.898Z,6.00
2019-06-10T13:16:00.776Z,5.70
2019-06-10T13:18:07.762Z,5.53
2019-06-10T13:20:13.647Z,6.03
2019-06-10T13:22:18.915Z,6.20
2019-06-10T13:24:24.063Z,6.57
2019-06-10T13:26:32.357Z,4.80
2019-06-10T13:28:36.352Z,6.27
2019-06-10T13:30:42.840Z,5.80
2019-06-10T13:32:48.253Z,6.00
2019-06-10T13:34:53.492Z,5.40
2019-06-10T13:36:58.801Z,5.00
2019-06-10T13:39:09.825Z,5.30
2019-06-10T13:41:12.869Z,4.33
2019-06-10T13:43:18.074Z,4.53
2019-06-10T13:45:25.598Z,4.00
2019-06-10T13:47:30.080Z,4.27
2019-06-10T13:49:35.669Z,4.10
2019-06-10T13:51:43.947Z,4.03
2019-06-10T13:53:49.236Z,4.23
2019-06-10T13:56:14.387Z,4.20
2019-06-10T13:58:03.889Z,3.67
2019-06-10T14:00:11.484Z,4.22
2019-06-10T14:02:15.987Z,4.17
2019-06-10T14:04:25.642Z,4.37
2019-06-10T14:06:40.535Z,4.03
2019-06-10T14:08:36.151Z,3.93
2019-06-10T14:10:42.910Z,3.80
2019-06-10T14:12:49.072Z,3.83
2019-06-10T14:14:54.143Z,3.80
2019-06-10T14:16:59.283Z,3.90
2019-06-10T14:19:06.197Z,4.40
2019-06-10T14:21:17.624Z,3.73
2019-06-10T14:23:18.642Z,3.80
2019-06-10T14:25:24.133Z,4.07
2019-06-10T14:27:29.328Z,4.07
2019-06-10T14:29:34.627Z,4.07
2019-06-10T14:31:44.204Z,3.40
2019-06-10T14:33:46.788Z,4.17
2019-06-10T14:35:53.472Z,3.97
2019-06-10T14:37:58.988Z,4.17
2019-06-10T14:40:05.774Z,4.10
2019-06-10T14:42:14.260Z,4.20
2019-06-10T14:44:18.366Z,3.80
2019-06-10T14:46:23.334Z,4.03
2019-06-10T14:48:28.517Z,4.30
2019-06-10T14:50:33.526Z,3.80
2019-06-10T14:52:39.117Z,4.50
2019-06-10T14:54:44.273Z,3.97
2019-06-10T14:56:53.866Z,4.20
2019-06-10T14:58:56.141Z,4.03
2019-06-10T15:01:04.700Z,3.43
2019-06-10T15:03:09.466Z,3.83
2019-06-10T15:05:17.389Z,3.40
2019-06-10T15:07:23.676Z,3.30
2019-06-10T15:09:29.592Z,3.00
2019-06-10T15:11:34.734Z,3.23
2019-06-10T15:13:39.968Z,3.27
2019-06-10T15:15:45.168Z,3.23
2019-06-10T15:17:52.545Z,3.17
2019-06-10T15:19:57.898Z,3.07
2019-06-10T15:22:03.197Z,4.17
2019-06-10T15:24:09.879Z,3.65
2019-06-10T15:26:17.350Z,3.07
2019-06-10T15:28:23.642Z,3.40
2019-06-10T15:30:31.315Z,3.20
2019-06-10T15:32:35.119Z,3.53
2019-06-10T15:34:40.028Z,3.37
2019-06-10T15:36:44.890Z,3.37
2019-06-10T15:38:52.348Z,4.10
2019-06-10T15:40:56.627Z,2.77
2019-06-10T15:43:01.508Z,3.67
2019-06-10T15:45:07.844Z,4.60
2019-06-10T15:47:17.061Z,4.10
2019-06-10T15:49:24.402Z,3.50
2019-06-10T15:51:27.337Z,4.80
2019-06-10T15:53:32.999Z,4.60
2019-06-10T15:56:05.697Z,4.70
2019-06-10T15:57:46.533Z,4.60
2019-06-10T15:59:52.209Z,4.40
2019-06-10T16:01:57.389Z,5.17
2019-06-10T16:04:04.417Z,5.33
2019-06-10T16:06:09.547Z,5.17
2019-06-10T16:08:15.954Z,5.10
2019-06-10T16:10:26.585Z,4.90
2019-06-10T16:12:28.792Z,5.27
2019-06-10T16:14:35.109Z,5.17
2019-06-10T16:16:43.054Z,4.92
2019-06-10T16:18:47.360Z,4.70
2019-06-10T16:20:53.264Z,5.57
2019-06-10T16:22:58.549Z,5.00
2019-06-10T16:25:04.254Z,5.63
2019-06-10T16:27:12.614Z,5.90
2019-06-10T16:29:17.447Z,5.73
2019-06-10T16:31:27.117Z,6.53
2019-06-10T16:33:33.677Z,6.90
2019-06-10T16:35:38.292Z,6.50
2019-06-10T16:37:46.913Z,6.10
2019-06-10T16:39:52.519Z,6.87
2019-06-10T16:41:58.034Z,6.72
2019-06-10T16:44:03.402Z,6.30
2019-06-10T16:46:08.488Z,7.27
2019-06-10T16:48:14.014Z,6.17
2019-06-10T16:50:19.477Z,5.70
2019-06-10T16:52:27.859Z,7.10
2019-06-10T16:54:34.765Z,6.43
2019-06-10T16:56:39.802Z,6.47
2019-06-10T16:58:45.177Z,7.03
2019-06-10T17:00:50.774Z,7.50
2019-06-10T17:02:55.984Z,8.10
2019-06-10T17:05:03.183Z,6.93
2019-06-10T17:07:08.244Z,7.70
2019-06-10T17:09:13.947Z,6.95
2019-06-10T17:11:20.698Z,6.13
2019-06-10T17:13:28.932Z,5.23
2019-06-10T17:15:34.540Z,5.40
2019-06-10T17:17:39.684Z,4.50
2019-06-10T17:19:45.362Z,4.87
2019-06-10T17:21:52.644Z,5.30
2019-06-10T17:23:57.690Z,4.50
2019-06-10T17:26:02.939Z,4.73
2019-06-10T17:28:18.105Z,5.40
2019-06-10T17:30:14.877Z,5.57
2019-06-10T17:32:23.602Z,4.67
2019-06-10T17:34:29.277Z,4.70
2019-06-10T17:36:35.556Z,5.27
2019-06-10T17:38:42.988Z,3.80
2019-06-10T17:40:48.407Z,4.33
2019-06-10T17:42:58.032Z,5.10
2019-06-10T17:45:03.139Z,5.73
2019-06-10T17:47:08.294Z,4.93
2019-06-10T17:49:13.733Z,4.47
2019-06-10T17:51:22.346Z,4.10
2019-06-10T17:53:26.702Z,4.63
2019-06-10T17:55:34.108Z,4.13
2019-06-10T17:57:42.837Z,4.40
2019-06-10T17:59:47.973Z,4.97
2019-06-10T18:01:53.835Z,4.70
2019-06-10T18:03:59.024Z,4.47
2019-06-10T18:06:04.239Z,4.40
2019-06-10T18:08:09.306Z,5.00
2019-06-10T18:10:15.033Z,4.90
2019-06-10T18:12:22.295Z,4.03
2019-06-10T18:14:28.139Z,4.77
2019-06-10T18:16:36.345Z,5.20
2019-06-10T18:18:42.576Z,4.67
2019-06-10T18:20:48.000Z,4.73
2019-06-10T18:22:53.987Z,5.33
2019-06-10T18:25:02.888Z,4.70
2019-06-10T18:27:07.429Z,5.17
2019-06-10T18:29:13.226Z,5.70
2019-06-10T18:31:18.946Z,5.17
2019-06-10T18:33:25.614Z,5.92
2019-06-10T18:35:34.303Z,5.30
2019-06-10T18:37:39.627Z,5.60
2019-06-10T18:39:45.556Z,4.87
2019-06-10T18:41:52.972Z,5.07
2019-06-10T18:43:58.027Z,5.23
2019-06-10T18:46:04.070Z,6.27
2019-06-10T18:48:12.538Z,5.85
2019-06-10T18:50:17.903Z,6.93
2019-06-10T18:52:23.418Z,7.93
2019-06-10T18:54:29.562Z,6.37
2019-06-10T18:56:36.027Z,6.10
2019-06-10T18:58:42.578Z,6.80
2019-06-10T19:00:59.188Z,6.10
2019-06-10T19:03:09.171Z,6.40
2019-06-10T19:05:02.851Z,6.07
2019-06-10T19:07:08.778Z,7.00
2019-06-10T19:09:15.009Z,5.83
2019-06-10T19:11:19.846Z,6.67
2019-06-10T19:13:24.690Z,7.05
2019-06-10T19:15:29.717Z,7.43
2019-06-10T19:17:36.700Z,7.53
2019-06-10T19:19:43.195Z,8.10
2019-06-10T19:22:01.790Z,8.20
2019-06-10T19:23:55.201Z,8.20
2019-06-10T19:26:03.664Z,8.27
2019-06-10T19:28:09.132Z,8.93
2019-06-10T19:30:15.154Z,9.80
2019-06-10T19:32:20.965Z,8.40
2019-06-10T19:34:26.047Z,9.47
2019-06-10T19:36:31.494Z,9.20
2019-06-10T19:38:38.023Z,9.57
2019-06-10T19:40:45.130Z,7.77
2019-06-10T19:42:52.407Z,8.00
2019-06-10T19:44:57.283Z,7.33
2019-06-10T19:47:02.534Z,7.85
2019-06-10T19:49:07.847Z,7.20
2019-06-10T19:51:12.960Z,6.67
2019-06-10T19:53:18.454Z,6.73
2019-06-10T19:55:23.594Z,6.70
2019-06-10T19:57:28.642Z,6.73
2019-06-10T19:59:51.064Z,7.33
2019-06-10T20:01:41.878Z,6.80
2019-06-10T20:03:47.163Z,6.90
2019-06-10T20:05:52.873Z,6.70
2019-06-10T20:07:58.266Z,6.10
2019-06-10T20:10:03.759Z,6.90
2019-06-10T20:12:08.954Z,6.80
2019-06-10T20:14:14.152Z,7.90
2019-06-10T20:16:19.973Z,7.30
2019-06-10T20:18:25.362Z,6.53
2019-06-10T20:20:33.152Z,7.17
2019-06-10T20:22:37.329Z,6.17
2019-06-10T20:24:44.820Z,6.73
2019-06-10T20:26:49.343Z,6.50
2019-06-10T20:28:55.482Z,6.10
2019-06-10T20:31:00.883Z,6.10
2019-06-10T20:33:06.233Z,5.80
2019-06-10T20:35:12.516Z,5.70
2019-06-10T20:37:17.317Z,5.20
2019-06-10T20:39:24.542Z,5.63
2019-06-10T20:41:28.698Z,5.57
2019-06-10T20:43:33.788Z,5.17
2019-06-10T20:45:39.558Z,5.40
2019-06-10T20:47:47.612Z,4.97
2019-06-10T20:49:55.946Z,4.90
2019-06-10T20:52:10.800Z,5.62
2019-06-10T20:54:07.388Z,5.73
2019-06-10T20:56:12.905Z,5.30
2019-06-10T20:58:18.226Z,5.53
2019-06-10T21:00:37.046Z,5.30
2019-06-10T21:02:45.557Z,5.60
2019-06-10T21:04:50.074Z,5.90
2019-06-10T21:06:57.544Z,5.43
2019-06-10T21:09:04.004Z,5.17
2019-06-10T21:11:09.099Z,5.30
2019-06-10T21:13:14.152Z,5.30
2019-06-10T21:15:19.479Z,5.13
2019-06-10T21:17:24.603Z,4.63
2019-06-10T21:19:29.844Z,4.57
2019-06-10T21:21:34.871Z,5.00
2019-06-10T21:23:41.176Z,4.93
2019-06-10T21:25:49.441Z,5.33
2019-06-10T21:27:54.221Z,5.30
2019-06-10T21:29:59.091Z,4.97
2019-06-10T21:32:05.078Z,5.00
2019-06-10T21:34:12.281Z,5.30
2019-06-10T21:36:17.256Z,5.20
2019-06-10T21:38:23.189Z,4.80
2019-06-10T21:40:29.548Z,5.27
2019-06-10T21:42:34.921Z,5.50
2019-06-10T21:44:40.033Z,4.80
2019-06-10T21:46:46.215Z,5.13
2019-06-10T21:48:53.214Z,5.10
2019-06-10T21:50:59.210Z,4.53
2019-06-10T21:53:06.654Z,4.40
2019-06-10T21:55:14.710Z,4.47
2019-06-10T21:57:22.115Z,4.80
2019-06-10T21:59:27.554Z,4.13
2019-06-10T22:01:33.473Z,4.90
2019-06-10T22:03:38.727Z,5.00
2019-06-10T22:05:44.293Z,4.50
2019-06-10T22:07:54.894Z,4.60
2019-06-10T22:09:57.660Z,4.50
2019-06-10T22:12:03.030Z,4.40
2019-06-10T22:14:08.586Z,4.87
2019-06-10T22:16:13.687Z,4.67
2019-06-10T22:18:18.828Z,4.90
2019-06-10T22:20:24.842Z,4.33
2019-06-10T22:22:32.230Z,5.20
2019-06-10T22:24:37.163Z,4.57
2019-06-10T22:26:42.629Z,4.70
2019-06-10T22:28:47.838Z,4.37
2019-06-10T22:31:10.832Z,4.87
2019-06-10T22:32:59.732Z,4.50
2019-06-10T22:35:04.995Z,4.23
2019-06-10T22:37:12.352Z,4.60
2019-06-10T22:39:17.181Z,4.40
2019-06-10T22:41:22.694Z,4.20
2019-06-10T22:43:28.116Z,3.63
2019-06-10T22:45:33.318Z,4.03
2019-06-10T22:47:38.410Z,4.10
2019-06-10T22:49:44.043Z,3.67
2019-06-10T22:51:50.240Z,4.00
2019-06-10T22:53:58.197Z,3.40
2019-06-10T22:56:02.992Z,4.07
2019-06-10T22:58:08.611Z,4.20
2019-06-10T23:00:13.768Z,3.70
2019-06-10T23:02:19.013Z,4.27
2019-06-10T23:04:24.053Z,3.87
2019-06-10T23:06:29.288Z,4.30
2019-06-10T23:08:34.474Z,4.27
2019-06-10T23:10:39.905Z,4.20
2019-06-10T23:12:44.957Z,3.83
2019-06-10T23:14:50.726Z,4.03
2019-06-10T23:16:57.168Z,4.37
2019-06-10T23:19:03.666Z,4.30
2019-06-10T23:21:09.408Z,4.90
2019-06-10T23:23:14.490Z,4.30
2019-06-10T23:25:21.913Z,5.30
2019-06-10T23:27:27.688Z,4.60
2019-06-10T23:29:32.744Z,4.65
2019-06-10T23:31:51.475Z,4.70
2019-06-10T23:33:44.798Z,5.13
2019-06-10T23:35:50.351Z,5.17
2019-06-10T23:37:58.528Z,4.97
2019-06-10T23:40:04.269Z,4.90
2019-06-10T23:42:09.137Z,5.10
2019-06-10T23:44:14.359Z,5.80
2019-06-10T23:46:19.489Z,5.27
2019-06-10T23:48:24.718Z,5.40
2019-06-10T23:50:29.803Z,5.37
2019-06-10T23:52:34.826Z,5.50
2019-06-10T23:54:40.023Z,5.43
2019-06-10T23:56:45.085Z,5.58
2019-06-10T23:58:52.378Z,5.30
